Shapleigh, Maine
Current Conditions -  °F | °C
As of 2:15 AM on Thursday 18 Dec 2014 (Local Time) from KSFM Reporting Station
Scattered Clouds Scattered Clouds  
Wind Chill: 32°   Ceiling: Unl
Heat Index: 39°   Visibility: 10mi
Dew Point: 30°   Wind: 13mph
Humidity: 70%   Direction: 280°W
Pressure: 29.65"   Gusts: 20mph
Location:  43.54°N, 70.85°W
Report Text: KSFM 180715Z AUTO 28011G17KT 10SM SCT065 04/M01 A2965 RMK AO1
Loading
Personal Weather Stations






























Interactive Weather Map New forecast layout! Learn more

10-Day Weather Forecast

Advertisements
Track Severe Weather on mobile